Time;durP1;ratioP1;P1;durP2;ratioP2;P2;SDS_P1;SDS_P2;PMS_P1;PMS_P2;Temp;Humidity;BMP_temperature;BMP_pressure;BME280_temperature;BME280_humidity;BME280_pressure;Samples;Min_cycle;Max_cycle;Signal;HPM_P1;HPM_P2
2023/02/12 00:01:21;;;;;;;48.90;25.45;;;;;;;-1.08;100.00;101529.75;4988432;28;20046;-77
2023/02/12 00:03:47;;;;;;;48.83;29.27;;;;;;;-1.15;100.00;101539.53;4988699;28;20046;-77
2023/02/12 00:06:13;;;;;;;59.08;28.77;;;;;;;-1.99;100.00;101417.41;4989127;28;20042;-78
2023/02/12 00:08:38;;;;;;;46.55;27.55;;;;;;;-2.00;100.00;101389.00;4981698;28;21459;-78
2023/02/12 00:11:09;;;;;;;54.58;27.27;;;;;;;-2.10;100.00;101379.78;4989083;28;20026;-77
2023/02/12 00:13:35;;;;;;;47.92;28.63;;;;;;;-1.81;100.00;101419.38;4988288;28;20042;-77
2023/02/12 00:16:07;;;;;;;51.28;28.08;;;;;;;-1.31;100.00;101533.38;4985464;28;20526;-80
2023/02/12 00:18:33;;;;;;;52.93;32.93;;;;;;;-1.19;100.00;101538.44;4996871;28;20569;-77
2023/02/12 00:20:59;;;;;;;58.20;28.42;;;;;;;-2.00;100.00;101379.59;5001070;28;20145;-76
2023/02/12 00:23:25;;;;;;;44.58;26.10;;;;;;;-1.20;100.00;101502.28;4981955;28;20050;-78
2023/02/12 00:25:50;;;;;;;44.35;25.67;;;;;;;-1.38;100.00;101472.00;4987901;28;20038;-77
2023/02/12 00:28:16;;;;;;;50.55;28.63;;;;;;;-1.82;100.00;101395.34;4981457;28;20062;-77
2023/02/12 00:30:41;;;;;;;51.40;26.52;;;;;;;-1.99;100.00;101344.47;4992584;28;20530;-77
2023/02/12 00:33:07;;;;;;;47.75;26.50;;;;;;;-1.85;100.00;101350.53;5007231;28;20034;-77
2023/02/12 00:35:32;;;;;;;52.90;30.58;;;;;;;-1.85;100.00;101389.09;5004038;28;20084;-77
2023/02/12 00:37:58;;;;;;;48.28;27.30;;;;;;;-1.82;100.00;101379.91;5000276;28;20398;-76
2023/02/12 00:40:25;;;;;;;51.20;28.17;;;;;;;-1.09;100.00;101506.44;5014227;28;20128;-77
2023/02/12 00:42:50;;;;;;;55.35;29.75;;;;;;;-1.13;100.00;101509.63;4997588;28;20054;-78
2023/02/12 00:45:16;;;;;;;51.42;31.50;;;;;;;-1.57;100.00;101422.66;4998048;28;20109;-77
2023/02/12 00:47:41;;;;;;;55.50;30.45;;;;;;;-1.66;100.00;101412.69;4991853;28;20103;-76
2023/02/12 00:50:07;;;;;;;48.67;25.83;;;;;;;-2.01;100.00;101356.38;4992302;28;20026;-79
2023/02/12 00:52:33;;;;;;;50.65;28.30;;;;;;;-1.25;100.00;101475.34;4986943;28;20422;-77
2023/02/12 00:54:58;;;;;;;53.47;30.25;;;;;;;-1.20;100.00;101497.13;4991553;28;20050;-78
2023/02/12 00:57:24;;;;;;;42.78;26.45;;;;;;;-1.54;100.00;101453.78;4995752;28;20467;-78
2023/02/12 00:59:49;;;;;;;59.97;29.38;;;;;;;-1.34;100.00;101470.50;4981485;28;20050;-75
2023/02/12 01:02:15;;;;;;;46.83;28.38;;;;;;;-1.38;100.00;101435.97;4991864;28;20041;-75
2023/02/12 01:04:40;;;;;;;41.83;27.75;;;;;;;-1.81;100.00;101360.22;4996879;28;20402;-75
2023/02/12 01:07:06;;;;;;;50.83;27.08;;;;;;;-2.13;100.00;101334.19;4990063;28;20609;-74
2023/02/12 01:09:31;;;;;;;53.65;30.67;;;;;;;-1.27;100.00;101468.41;4989726;28;20121;-77
2023/02/12 01:11:57;;;;;;;46.15;27.50;;;;;;;-1.19;100.00;101466.34;4994654;28;20053;-75
2023/02/12 01:14:22;;;;;;;46.38;27.50;;;;;;;-1.58;100.00;101359.13;4990735;28;20034;-77
2023/02/12 01:16:48;;;;;;;50.15;32.65;;;;;;;-1.08;100.00;101467.00;4997729;28;20453;-78
2023/02/12 01:19:13;;;;;;;47.58;27.50;;;;;;;-1.87;100.00;101329.88;4991850;28;20511;-77
2023/02/12 01:21:38;;;;;;;46.97;27.98;;;;;;;-1.39;100.00;101431.56;4987859;28;20039;-77
2023/02/12 01:24:04;;;;;;;57.47;30.33;;;;;;;-1.27;100.00;101447.81;4987436;28;20061;-75
2023/02/12 01:26:30;;;;;;;49.65;28.00;;;;;;;-1.45;100.00;101425.13;4983979;28;20120;-76
2023/02/12 01:29:01;;;;;;;46.22;27.55;;;;;;;-2.31;100.00;101283.25;4994005;28;20049;-77
2023/02/12 01:31:30;;;;;;;48.10;30.08;;;;;;;-2.07;100.00;101297.69;4987568;28;20046;-79
2023/02/12 01:33:57;;;;;;;57.10;30.58;;;;;;;-1.43;100.00;101411.56;4992095;28;20042;-76
2023/02/12 01:36:23;;;;;;;52.20;30.63;;;;;;;-1.49;100.00;101424.06;5003130;28;20732;-77
2023/02/12 01:38:50;;;;;;;57.33;31.05;;;;;;;-2.59;100.00;101255.75;4985200;28;20046;-76
2023/02/12 01:41:18;;;;;;;50.05;29.77;;;;;;;-2.09;100.00;101298.41;4988871;28;20018;-76
2023/02/12 01:43:48;;;;;;;47.22;31.55;;;;;;;-2.13;100.00;101297.31;4993513;28;20130;-76
2023/02/12 01:46:14;;;;;;;48.00;28.98;;;;;;;-2.02;100.00;101321.13;4986713;28;20065;-77
2023/02/12 01:48:44;;;;;;;58.60;35.40;;;;;;;-1.32;100.00;101440.59;4988879;28;20058;-77
2023/02/12 01:51:13;;;;;;;58.15;28.90;;;;;;;-2.36;100.00;101246.97;4981532;28;20500;-80
2023/02/12 01:53:45;;;;;;;52.88;31.77;;;;;;;-1.36;100.00;101415.44;4992120;28;20030;-77
2023/02/12 01:56:11;;;;;;;59.25;31.42;;;;;;;-1.38;100.00;101438.53;4985097;28;20030;-76
2023/02/12 01:58:40;;;;;;;63.47;32.47;;;;;;;-1.54;100.00;101395.47;4985956;28;20042;-75
2023/02/12 02:01:10;;;;;;;54.08;29.75;;;;;;;-1.77;100.00;101362.22;4982252;28;20212;-75
2023/02/12 02:03:37;;;;;;;51.55;28.63;;;;;;;-1.11;100.00;101479.69;4987575;28;20524;-75
2023/02/12 02:06:10;;;;;;;59.55;34.03;;;;;;;-1.14;100.00;101480.41;4988706;28;20529;-75
2023/02/12 02:08:37;;;;;;;60.60;31.55;;;;;;;-1.31;100.00;101457.84;4992278;28;20871;-80
2023/02/12 02:14:31;;;;;;;52.38;29.92;;;;;;;-2.28;100.00;101338.31;5009814;28;20060;-77
2023/02/12 02:16:34;;;;;;;49.20;30.60;;;;;;;-1.73;100.00;101392.50;4978289;28;20454;-77
2023/02/12 02:19:23;;;;;;;70.28;31.55;;;;;;;-2.01;100.00;101349.53;4984544;28;20150;-78
2023/02/12 02:22:16;;;;;;;47.60;29.85;;;;;;;-2.04;100.00;101351.88;4980403;28;21001;-80
2023/02/12 02:24:52;;;;;;;47.80;29.13;;;;;;;-1.17;100.00;101521.41;4983522;28;20137;-77
2023/02/12 02:27:44;;;;;;;57.80;32.33;;;;;;;-1.38;100.00;101476.22;4984741;28;20472;-77
2023/02/12 02:30:33;;;;;;;62.58;30.38;;;;;;;-1.30;100.00;101493.97;4982089;28;20123;-78
2023/02/12 02:33:01;;;;;;;51.72;27.45;;;;;;;-1.14;100.00;101501.00;4986401;28;20061;-78
2023/02/12 02:36:04;;;;;;;57.90;32.15;;;;;;;-1.10;100.00;101494.34;4985040;28;20113;-79
2023/02/12 02:38:51;;;;;;;50.63;31.33;;;;;;;-1.31;100.00;101458.72;4984086;28;20407;-78
2023/02/12 02:41:22;;;;;;;59.10;32.13;;;;;;;-1.13;100.00;101514.75;4986008;28;20085;-77
2023/02/12 02:43:50;;;;;;;53.47;29.27;;;;;;;-1.21;100.00;101495.38;4988877;28;20521;-77
2023/02/12 02:46:26;;;;;;;62.85;33.20;;;;;;;-1.14;100.00;101518.16;4984868;28;20054;-78
2023/02/12 02:48:57;;;;;;;65.93;36.72;;;;;;;-1.21;100.00;101514.28;4988034;28;20204;-77
2023/02/12 02:51:30;;;;;;;57.90;32.80;;;;;;;-1.82;100.00;101394.47;4997643;28;20042;-75
2023/02/12 02:54:25;;;;;;;59.65;32.33;;;;;;;-1.54;100.00;101452.06;5005260;28;20026;-77
2023/02/12 02:56:56;;;;;;;52.25;29.08;;;;;;;-1.72;100.00;101399.41;5013216;28;20058;-76
2023/02/12 02:59:31;;;;;;;53.72;28.05;;;;;;;-0.93;100.00;101523.78;5007548;28;20029;-78
2023/02/12 03:02:03;;;;;;;50.70;28.95;;;;;;;-0.91;100.00;101525.66;4996504;28;20034;-77
2023/02/12 03:04:42;;;;;;;55.40;34.22;;;;;;;-0.99;100.00;101503.66;5006416;28;20387;-75
2023/02/12 03:07:15;;;;;;;48.47;32.05;;;;;;;-0.86;100.00;101529.44;4989447;28;20093;-79
2023/02/12 03:09:48;;;;;;;54.05;35.15;;;;;;;-0.95;100.00;101507.34;4986580;28;20072;-78
2023/02/12 03:12:21;;;;;;;62.15;35.55;;;;;;;-1.60;100.00;101397.63;4988587;28;20180;-77
2023/02/12 03:14:58;;;;;;;51.75;31.05;;;;;;;-0.79;100.00;101538.44;4987522;28;20046;-77
2023/02/12 03:17:32;;;;;;;53.13;29.45;;;;;;;-0.80;100.00;101531.50;4982556;28;20118;-77
2023/02/12 03:20:09;;;;;;;60.58;31.70;;;;;;;-1.08;100.00;101533.97;4979002;28;20034;-77
2023/02/12 03:22:38;;;;;;;60.78;34.28;;;;;;;-1.77;100.00;101401.69;4982072;28;20101;-77
2023/02/12 03:25:25;;;;;;;53.10;31.65;;;;;;;-0.77;100.00;101569.44;4987228;28;20490;-77
2023/02/12 03:28:14;;;;;;;60.75;32.08;;;;;;;-0.79;100.00;101571.94;4988221;28;20046;-78
2023/02/12 03:30:51;;;;;;;53.13;31.30;;;;;;;-0.72;100.00;101583.53;4985059;28;20061;-78
2023/02/12 03:33:20;;;;;;;53.42;33.85;;;;;;;-1.00;100.00;101583.44;4984494;28;20062;-78
2023/02/12 03:36:01;;;;;;;54.72;28.85;;;;;;;-1.61;100.00;101438.72;4992763;28;20116;-78
2023/02/12 03:38:48;;;;;;;58.42;32.00;;;;;;;-1.48;100.00;101449.00;4988533;28;20422;-77
2023/02/12 03:41:26;;;;;;;49.83;32.22;;;;;;;-1.59;100.00;101419.09;5008594;28;20022;-76
2023/02/12 03:43:56;;;;;;;52.25;31.65;;;;;;;-1.57;100.00;101422.66;4980599;28;20046;-76
2023/02/12 03:46:37;;;;;;;58.33;32.85;;;;;;;-1.73;100.00;101415.66;4986599;28;20137;-75
2023/02/12 03:49:06;;;;;;;65.13;33.03;;;;;;;-0.79;100.00;101573.63;4982460;28;20050;-77
2023/02/12 03:51:41;;;;;;;51.33;31.50;;;;;;;-0.94;100.00;101542.59;4989441;28;20140;-79
2023/02/12 03:54:09;;;;;;;55.40;32.95;;;;;;;-0.81;100.00;101572.63;4987319;28;20054;-79
2023/02/12 03:56:44;;;;;;;55.33;30.83;;;;;;;-0.85;100.00;101556.06;4987272;28;20204;-77
2023/02/12 03:59:10;;;;;;;53.53;35.58;;;;;;;-1.92;100.00;101409.28;4986974;28;20084;-80
2023/02/12 04:01:35;;;;;;;59.63;31.52;;;;;;;-1.30;100.00;101514.56;4989065;28;20045;-79
2023/02/12 04:04:05;;;;;;;47.55;32.30;;;;;;;-0.82;100.00;101581.13;4984568;28;20047;-79
2023/02/12 04:06:31;;;;;;;63.30;32.55;;;;;;;-0.86;100.00;101599.00;4987331;28;20046;-77
2023/02/12 04:09:01;;;;;;;54.10;32.67;;;;;;;-1.15;100.00;101562.69;4992369;28;20050;-77
2023/02/12 04:11:45;;;;;;;56.45;33.88;;;;;;;-0.88;100.00;101592.84;4996752;28;20034;-75
2023/02/12 04:14:29;;;;;;;52.38;29.48;;;;;;;-0.99;100.00;101595.50;5007720;28;20037;-80
2023/02/12 04:17:23;;;;;;;56.90;32.75;;;;;;;-1.02;100.00;101600.47;5003721;28;20057;-80
2023/02/12 04:19:49;;;;;;;54.13;31.70;;;;;;;-0.94;100.00;101588.97;5005838;28;20846;-79
2023/02/12 04:22:47;;;;;;;51.85;29.05;;;;;;;-1.10;100.00;101562.22;4998737;28;20050;-82
2023/02/12 04:25:21;;;;;;;60.13;31.13;;;;;;;-1.64;100.00;101472.88;4995559;28;20120;-80
2023/02/12 04:28:07;;;;;;;69.60;34.55;;;;;;;-1.31;100.00;101568.53;5004639;28;20052;-81
2023/02/12 04:31:03;;;;;;;55.22;32.80;;;;;;;-1.25;100.00;101624.69;5002991;28;20042;-77
2023/02/12 04:33:38;;;;;;;60.38;30.83;;;;;;;-1.42;100.00;101583.25;5006775;28;20061;-78
2023/02/12 04:36:28;;;;;;;62.03;29.75;;;;;;;-1.22;100.00;101620.63;5005884;28;20041;-77
2023/02/12 04:38:57;;;;;;;69.88;33.47;;;;;;;-1.99;100.00;101466.25;5011310;28;20046;-77
2023/02/12 04:41:24;;;;;;;64.82;34.53;;;;;;;-2.09;100.00;101474.13;5009457;28;20038;-78
2023/02/12 04:43:50;;;;;;;57.58;34.40;;;;;;;-1.45;100.00;101575.34;5005921;28;20026;-77
2023/02/12 04:46:15;;;;;;;59.13;34.10;;;;;;;-1.82;100.00;101508.53;5008759;28;20544;-78
2023/02/12 04:48:55;;;;;;;54.53;33.67;;;;;;;-1.25;100.00;101615.28;5010783;28;20053;-77
2023/02/12 04:51:20;;;;;;;61.17;30.98;;;;;;;-2.00;100.00;101454.16;5005858;28;20053;-77
2023/02/12 04:53:46;;;;;;;54.65;33.10;;;;;;;-1.68;100.00;101486.31;5007418;28;20089;-75
2023/02/12 04:56:12;;;;;;;62.33;32.85;;;;;;;-1.24;100.00;101609.34;5011526;28;20163;-78
2023/02/12 04:58:39;;;;;;;63.13;32.97;;;;;;;-2.17;100.00;101473.59;5011365;28;20508;-78
2023/02/12 05:01:05;;;;;;;71.68;36.70;;;;;;;-2.10;100.00;101484.31;5005731;28;20061;-78
2023/02/12 05:03:30;;;;;;;56.83;32.20;;;;;;;-1.97;100.00;101484.34;5007527;28;20053;-76
2023/02/12 05:06:01;;;;;;;66.65;38.17;;;;;;;-2.16;100.00;101490.78;5006359;28;20411;-77
2023/02/12 05:08:27;;;;;;;51.67;34.45;;;;;;;-1.84;100.00;101527.22;5000114;28;20042;-78
2023/02/12 05:10:52;;;;;;;67.47;33.85;;;;;;;-1.36;100.00;101603.34;5008687;28;20806;-77
2023/02/12 05:13:18;;;;;;;54.20;30.83;;;;;;;-1.07;100.00;101629.38;5010076;28;20076;-78
2023/02/12 05:15:43;;;;;;;63.03;32.95;;;;;;;-1.59;100.00;101543.53;5011469;28;20052;-81
2023/02/12 05:18:09;;;;;;;64.97;35.97;;;;;;;-1.34;100.00;101594.06;5009094;28;20037;-82
2023/02/12 05:20:34;;;;;;;53.47;33.20;;;;;;;-1.33;100.00;101595.88;5009989;28;20030;-79
2023/02/12 05:22:59;;;;;;;61.50;36.15;;;;;;;-1.95;100.00;101493.94;5010852;28;20449;-79
2023/02/12 05:25:25;;;;;;;58.75;32.35;;;;;;;-1.61;100.00;101617.16;5012724;28;20406;-79
2023/02/12 05:27:50;;;;;;;63.28;33.45;;;;;;;-1.63;100.00;101572.41;4994222;28;20053;-78
2023/02/12 05:30:16;;;;;;;62.92;34.30;;;;;;;-2.05;100.00;101501.81;4988093;28;20452;-79
2023/02/12 05:32:41;;;;;;;62.13;36.15;;;;;;;-1.10;100.00;101667.81;4983680;28;20053;-80
2023/02/12 05:35:07;;;;;;;57.58;33.47;;;;;;;-1.18;100.00;101661.25;4990937;28;20030;-78
2023/02/12 05:37:35;;;;;;;62.25;33.88;;;;;;;-1.83;100.00;101532.47;4987230;28;20510;-80
2023/02/12 05:40:02;;;;;;;65.07;35.35;;;;;;;-1.02;100.00;101673.47;4990198;28;20529;-78
2023/02/12 05:42:28;;;;;;;65.13;38.22;;;;;;;-1.10;100.00;101652.38;4999154;28;20046;-79
2023/02/12 05:44:54;;;;;;;79.20;42.00;;;;;;;-2.03;100.00;101520.81;5004238;28;20072;-79
2023/02/12 05:47:19;;;;;;;65.95;37.70;;;;;;;-1.77;100.00;101527.75;5007547;28;20054;-76
2023/02/12 05:49:45;;;;;;;66.45;35.55;;;;;;;-1.41;100.00;101594.44;4985981;28;20038;-79
2023/02/12 05:52:10;;;;;;;66.47;38.40;;;;;;;-1.86;100.00;101546.81;4988210;28;20085;-78
2023/02/12 05:54:36;;;;;;;79.45;38.70;;;;;;;-1.40;100.00;101706.94;4990210;28;20517;-77
2023/02/12 05:57:01;;;;;;;65.25;36.55;;;;;;;-1.16;100.00;101687.09;4987745;28;20505;-76
2023/02/12 05:59:27;;;;;;;60.35;37.10;;;;;;;-1.57;100.00;101588.28;5006469;28;20121;-77
2023/02/12 06:01:52;;;;;;;74.40;36.47;;;;;;;-1.59;100.00;101600.16;5010865;28;20104;-77
2023/02/12 06:04:24;;;;;;;69.50;34.75;;;;;;;-1.58;100.00;101583.00;4996993;28;20051;-78
2023/02/12 06:06:51;;;;;;;66.30;37.15;;;;;;;-1.56;100.00;101561.75;4988593;28;20185;-77
2023/02/12 06:09:16;;;;;;;65.15;36.30;;;;;;;-1.21;100.00;101608.66;4979207;28;20058;-77
2023/02/12 06:11:42;;;;;;;61.42;39.00;;;;;;;-0.52;100.00;101740.34;4998001;28;20488;-77
2023/02/12 06:14:12;;;;;;;74.93;37.60;;;;;;;-1.31;100.00;101586.56;4989150;28;20122;-78
2023/02/12 06:16:38;;;;;;;62.03;37.90;;;;;;;-0.43;100.00;101730.66;5003191;28;20053;-77
2023/02/12 06:19:05;;;;;;;71.90;38.70;;;;;;;-1.11;100.00;101593.91;5008558;28;20184;-77
2023/02/12 06:21:31;;;;;;;65.38;38.97;;;;;;;-0.87;100.00;101628.13;5012200;28;20037;-77
2023/02/12 06:23:57;;;;;;;72.85;39.92;;;;;;;-0.37;100.00;101739.59;5007251;28;20141;-78
2023/02/12 06:26:23;;;;;;;76.22;39.72;;;;;;;-0.43;100.00;101732.34;5005965;28;20038;-77
2023/02/12 06:28:49;;;;;;;76.55;38.95;;;;;;;-1.62;100.00;101607.63;5005877;28;20066;-79
2023/02/12 06:31:21;;;;;;;84.03;41.13;;;;;;;-0.48;100.00;101746.63;5002528;28;20050;-77
2023/02/12 06:33:47;;;;;;;75.78;39.22;;;;;;;-1.34;100.00;101620.69;5003310;28;20136;-78
2023/02/12 06:36:12;;;;;;;67.28;40.00;;;;;;;-0.84;100.00;101627.44;5001599;28;20038;-80
2023/02/12 06:38:38;;;;;;;68.00;37.22;;;;;;;-0.11;100.00;101760.22;4983773;28;20100;-79
2023/02/12 06:41:04;;;;;;;74.82;36.83;;;;;;;0.05;100.00;101749.22;4987313;28;20125;-79
2023/02/12 06:43:29;;;;;;;71.93;37.80;;;;;;;0.04;100.00;101749.09;4988059;28;20521;-76
2023/02/12 06:45:55;;;;;;;73.35;36.78;;;;;;;-0.58;100.00;101628.25;4986194;28;20521;-79
2023/02/12 06:48:20;;;;;;;73.82;40.70;;;;;;;0.02;100.00;101718.03;4989163;28;20418;-76
2023/02/12 06:50:46;;;;;;;68.72;37.92;;;;;;;0.03;100.00;101745.63;4989597;28;20116;-76
2023/02/12 06:53:11;;;;;;;68.57;37.70;;;;;;;-0.42;100.00;101633.59;4986155;28;20058;-76
2023/02/12 06:55:37;;;;;;;69.00;40.38;;;;;;;0.20;100.00;101749.28;4983872;28;20046;-76
2023/02/12 06:58:02;;;;;;;78.70;42.10;;;;;;;0.37;100.00;101778.75;4995599;28;20042;-77
2023/02/12 07:00:28;;;;;;;76.97;43.58;;;;;;;0.31;100.00;101781.84;4984468;28;20129;-77
2023/02/12 07:02:56;;;;;;;77.32;40.67;;;;;;;0.54;100.00;101769.47;4984819;28;20426;-76
2023/02/12 07:05:23;;;;;;;79.00;43.55;;;;;;;0.67;100.00;101774.59;4988632;28;20038;-76
2023/02/12 07:07:48;;;;;;;102.60;40.80;;;;;;;0.14;100.00;101661.16;4980531;28;20030;-77
2023/02/12 07:10:14;;;;;;;78.38;44.45;;;;;;;0.72;100.00;101755.13;4990741;28;20105;-76
2023/02/12 07:12:39;;;;;;;70.28;37.08;;;;;;;0.99;100.00;101780.88;4990106;28;20038;-76
2023/02/12 07:15:05;;;;;;;72.20;39.55;;;;;;;1.14;100.00;101798.97;4989102;28;20042;-76
2023/02/12 07:17:31;;;;;;;84.70;41.90;;;;;;;1.00;100.00;101811.94;4987838;28;20035;-77
2023/02/12 07:19:56;;;;;;;57.53;37.60;;;;;;;0.34;100.00;101678.75;4987570;28;20137;-78
2023/02/12 07:22:22;;;;;;;68.88;42.33;;;;;;;1.22;100.00;101798.66;4998889;28;20054;-77
2023/02/12 07:24:48;;;;;;;83.35;36.97;;;;;;;1.29;100.00;101801.59;4997703;28;20045;-76
2023/02/12 07:27:14;;;;;;;75.53;43.60;;;;;;;0.70;100.00;101674.03;5001655;28;20045;-76
2023/02/12 07:29:39;;;;;;;70.25;41.10;;;;;;;1.51;100.00;101798.59;4981369;28;20046;-78
2023/02/12 07:32:05;;;;;;;81.45;39.20;;;;;;;1.80;100.00;101829.66;4983726;28;20045;-79
2023/02/12 07:34:30;;;;;;;80.78;45.50;;;;;;;0.93;100.00;101680.59;4985542;28;20055;-77
2023/02/12 07:36:56;;;;;;;95.45;43.13;;;;;;;1.84;100.00;101813.50;5001351;28;20050;-78
2023/02/12 07:39:22;;;;;;;92.47;44.63;;;;;;;1.31;100.00;101713.00;5007385;28;20050;-76
2023/02/12 07:41:47;;;;;;;89.20;45.83;;;;;;;1.62;100.00;101748.41;5001060;28;20050;-79
2023/02/12 07:44:13;;;;;;;75.68;40.05;;;;;;;2.26;100.00;101858.19;4986977;28;20042;-80
2023/02/12 07:46:43;;;;;;;82.20;41.38;;;;;;;2.41;100.00;101855.59;4977215;28;20065;-78
2023/02/12 07:49:20;;;;;;;81.25;40.75;;;;;;;2.37;100.00;101873.47;4954509;28;20109;-76
2023/02/12 07:51:47;;;;;;;90.57;35.50;;;;;;;1.60;100.00;101731.88;4979738;28;20077;-76
2023/02/12 07:54:13;;;;;;;83.82;35.90;;;;;;;2.02;100.00;101780.03;4987888;28;20042;-76
2023/02/12 07:56:41;;;;;;;50.95;31.10;;;;;;;2.42;100.00;101849.59;4987118;28;20623;-75
2023/02/12 07:59:10;;;;;;;48.75;30.42;;;;;;;2.47;97.19;101836.91;4987732;28;20090;-77
2023/02/12 08:01:38;;;;;;;56.70;28.10;;;;;;;1.97;97.86;101758.16;4982588;28;20149;-76
2023/02/12 08:04:09;;;;;;;49.63;29.67;;;;;;;2.20;97.53;101769.81;4986426;28;20459;-77
2023/02/12 08:06:37;;;;;;;60.75;33.92;;;;;;;2.74;94.53;101829.75;4987093;28;20137;-78
2023/02/12 08:09:07;;;;;;;49.85;30.17;;;;;;;2.46;92.75;101773.84;4983964;28;20526;-75
2023/02/12 08:11:33;;;;;;;58.40;33.22;;;;;;;2.60;94.96;101789.22;4983497;28;20054;-76
2023/02/12 08:13:59;;;;;;;55.35;30.45;;;;;;;2.96;94.87;101840.47;4993805;28;20073;-78
2023/02/12 08:16:26;;;;;;;56.80;33.45;;;;;;;3.35;96.57;101886.63;4986000;28;20684;-78
2023/02/12 08:18:53;;;;;;;51.40;31.55;;;;;;;2.69;96.50;101746.59;4979790;28;20070;-77
2023/02/12 08:21:23;;;;;;;47.88;30.40;;;;;;;3.13;100.00;101810.25;4984729;28;20489;-78
2023/02/12 08:23:50;;;;;;;54.63;32.03;;;;;;;2.72;100.00;101745.84;4979836;28;20070;-77
2023/02/12 08:26:17;;;;;;;41.50;28.42;;;;;;;3.53;100.00;101878.91;4983426;28;20069;-75
2023/02/12 08:28:49;;;;;;;72.80;31.80;;;;;;;3.59;100.00;101876.63;4979576;28;20051;-77
2023/02/12 08:31:20;;;;;;;51.80;30.60;;;;;;;3.37;100.00;101838.28;4975961;28;20515;-76
2023/02/12 08:33:47;;;;;;;52.42;29.45;;;;;;;3.66;100.00;101896.91;4986839;28;20418;-76
2023/02/12 08:36:15;;;;;;;60.17;31.02;;;;;;;3.00;100.00;101760.25;4986803;28;20046;-77
2023/02/12 08:38:42;;;;;;;49.53;27.00;;;;;;;2.96;100.00;101746.25;4979370;28;20149;-76
2023/02/12 08:41:17;;;;;;;46.40;27.42;;;;;;;3.94;100.00;101896.59;4977836;28;20034;-79
2023/02/12 08:43:43;;;;;;;51.67;29.65;;;;;;;3.85;100.00;101864.97;4982870;28;20057;-79
2023/02/12 08:46:15;;;;;;;70.53;30.75;;;;;;;3.23;100.00;101772.75;4979974;28;20058;-78
2023/02/12 08:48:42;;;;;;;45.85;29.75;;;;;;;4.15;100.00;101914.09;4971882;28;20058;-77
2023/02/12 08:51:13;;;;;;;56.17;34.05;;;;;;;3.51;100.00;101785.41;4967964;28;20046;-78
2023/02/12 08:53:41;;;;;;;51.47;31.08;;;;;;;4.03;100.00;101901.38;4966253;28;20049;-77
2023/02/12 08:56:07;;;;;;;49.60;28.98;;;;;;;4.21;100.00;101917.91;4968456;28;20296;-77
2023/02/12 08:58:35;;;;;;;54.30;30.00;;;;;;;3.40;100.00;101796.94;4965676;28;20126;-79
2023/02/12 09:01:01;;;;;;;45.30;30.77;;;;;;;3.72;100.00;101824.53;4960187;28;23291;-77
2023/02/12 09:03:27;;;;;;;52.33;31.80;;;;;;;4.32;100.00;101935.72;4956601;28;20065;-77
2023/02/12 09:05:53;;;;;;;47.13;28.42;;;;;;;4.37;100.00;101932.53;4965223;28;20054;-77
2023/02/12 09:08:18;;;;;;;63.38;32.97;;;;;;;3.64;100.00;101807.69;4972419;28;20077;-79
2023/02/12 09:10:44;;;;;;;54.47;30.85;;;;;;;4.42;100.00;101935.34;4961528;28;20946;-76
2023/02/12 09:13:12;;;;;;;48.45;29.02;;;;;;;3.68;100.00;101811.34;4968156;28;20097;-79
2023/02/12 09:15:39;;;;;;;52.88;29.92;;;;;;;3.80;100.00;101819.72;4970002;28;20053;-76
2023/02/12 09:18:06;;;;;;;59.15;31.45;;;;;;;4.18;100.00;101904.75;4972100;28;20073;-79
2023/02/12 09:20:32;;;;;;;46.65;29.38;;;;;;;4.41;95.79;101963.06;4969492;28;20052;-79
2023/02/12 09:22:59;;;;;;;38.83;24.38;;;;;;;3.98;95.78;101856.09;4969340;28;20100;-80
2023/02/12 09:25:25;;;;;;;42.03;25.92;;;;;;;4.32;98.81;101953.91;4970990;28;20062;-82
2023/02/12 09:27:50;;;;;;;46.35;27.83;;;;;;;4.28;100.00;101923.38;4974705;28;20445;-79
2023/02/12 09:30:17;;;;;;;41.70;26.85;;;;;;;4.50;100.00;101965.22;4970365;28;20054;-80
2023/02/12 09:32:42;;;;;;;48.60;28.40;;;;;;;4.68;100.00;101990.34;4968255;28;20058;-76
2023/02/12 09:35:11;;;;;;;54.75;31.75;;;;;;;4.49;100.00;101986.81;4969912;28;20724;-78
2023/02/12 09:37:37;;;;;;;47.05;28.80;;;;;;;4.20;100.00;101955.06;4987004;28;20064;-78
2023/02/12 09:40:03;;;;;;;47.08;31.05;;;;;;;4.12;100.00;101881.06;5003690;28;20490;-76
2023/02/12 09:42:57;;;;;;;57.50;29.60;;;;;;;4.71;100.00;101961.91;4998339;28;20150;-77
2023/02/12 09:45:29;;;;;;;41.58;28.45;;;;;;;4.02;100.00;101826.88;5002504;28;20080;-76
2023/02/12 09:48:22;;;;;;;46.28;27.55;;;;;;;4.82;100.00;101974.63;5007405;28;20092;-79
2023/02/12 09:50:56;;;;;;;65.03;27.63;;;;;;;4.84;100.00;101985.06;4996174;28;20056;-80
2023/02/12 09:53:28;;;;;;;35.60;22.25;;;;;;;4.76;100.00;101976.03;4996007;28;20026;-76
2023/02/12 09:55:54;;;;;;;33.85;23.20;;;;;;;4.65;100.00;101980.69;4982073;28;20069;-76
2023/02/12 09:58:44;;;;;;;45.08;23.42;;;;;;;4.96;100.00;101984.78;5000563;28;20058;-77
2023/02/12 10:01:14;;;;;;;35.85;23.63;;;;;;;4.92;100.00;101981.16;4983611;28;20463;-79
2023/02/12 10:03:41;;;;;;;36.35;21.15;;;;;;;4.89;96.98;101965.38;4984013;28;20050;-78
2023/02/12 10:06:25;;;;;;;32.88;22.98;;;;;;;4.82;92.61;101976.31;4987761;28;20042;-78
2023/02/12 10:08:50;;;;;;;38.53;22.70;;;;;;;4.95;91.55;102004.69;4982307;28;20080;-77
2023/02/12 10:11:47;;;;;;;38.05;21.42;;;;;;;4.38;91.99;101877.16;4980804;28;20145;-77
2023/02/12 10:14:40;;;;;;;37.33;23.50;;;;;;;4.81;95.46;101992.72;4977296;28;20055;-79
2023/02/12 10:17:41;;;;;;;36.85;23.60;;;;;;;4.79;95.82;101958.84;5005366;28;20114;-75
2023/02/12 10:20:35;;;;;;;43.72;25.98;;;;;;;4.35;92.02;101874.38;5007322;28;20053;-75
2023/02/12 10:23:39;;;;;;;34.75;23.02;;;;;;;4.84;93.68;101995.47;4982560;28;20062;-75
2023/02/12 10:26:08;;;;;;;36.72;22.23;;;;;;;4.86;92.38;102006.84;5001267;28;20224;-76
2023/02/12 10:28:41;;;;;;;45.63;24.00;;;;;;;4.97;90.45;102004.78;5012923;28;20442;-78
2023/02/12 10:31:15;;;;;;;40.10;23.33;;;;;;;4.38;89.71;101882.34;4996443;28;20056;-76
2023/02/12 10:33:47;;;;;;;67.88;25.10;;;;;;;4.30;89.89;101872.38;5007265;28;20057;-76
2023/02/12 10:36:40;;;;;;;42.70;25.85;;;;;;;4.15;90.87;101875.13;5001086;28;20134;-78
2023/02/12 10:39:35;;;;;;;32.13;22.50;;;;;;;5.33;91.33;101992.63;4989895;28;20141;-77
2023/02/12 10:42:13;;;;;;;32.47;22.08;;;;;;;5.32;91.07;102000.38;4997681;28;20551;-80
2023/02/12 10:44:39;;;;;;;44.47;23.58;;;;;;;5.44;90.81;102001.81;4981721;28;22866;-78
2023/02/12 10:47:07;;;;;;;37.55;21.95;;;;;;;5.39;91.10;101989.44;4972745;28;20576;-75
2023/02/12 10:49:34;;;;;;;35.15;22.40;;;;;;;5.37;91.33;101967.63;4978686;28;20157;-76
2023/02/12 10:52:29;;;;;;;42.20;25.15;;;;;;;5.49;93.38;101978.59;4980129;28;20129;-79
2023/02/12 10:54:58;;;;;;;34.83;22.40;;;;;;;5.83;90.50;102024.41;4992689;28;20037;-76
2023/02/12 10:57:30;;;;;;;42.25;23.38;;;;;;;5.17;93.56;101896.44;5003053;28;20522;-79
2023/02/12 11:00:13;;;;;;;39.70;24.00;;;;;;;5.44;97.46;101931.53;4995490;28;20743;-77
2023/02/12 11:02:39;;;;;;;33.60;22.27;;;;;;;5.78;94.91;101992.94;4981606;28;20045;-77
2023/02/12 11:05:24;;;;;;;35.40;22.83;;;;;;;5.71;94.20;102014.31;4984333;28;20089;-77
2023/02/12 11:07:50;;;;;;;32.08;21.55;;;;;;;4.73;95.52;101887.44;5001849;28;20095;-78
2023/02/12 11:10:24;;;;;;;42.00;22.60;;;;;;;5.52;95.86;101980.47;4998246;28;20085;-81
2023/02/12 11:12:50;;;;;;;37.78;24.00;;;;;;;5.72;96.07;102013.50;5001765;28;20041;-79
2023/02/12 11:15:18;;;;;;;33.95;24.40;;;;;;;5.81;95.97;102018.25;4987961;28;20061;-78
2023/02/12 11:17:59;;;;;;;38.75;26.05;;;;;;;5.78;94.96;102012.88;4976644;28;20139;-78
2023/02/12 11:20:47;;;;;;;37.60;25.83;;;;;;;5.70;96.72;102013.44;4981205;28;20517;-79
2023/02/12 11:23:30;;;;;;;39.67;27.67;;;;;;;5.15;97.07;101883.38;4992761;28;20049;-78
2023/02/12 11:26:28;;;;;;;45.90;29.58;;;;;;;5.84;97.27;102021.88;4965754;28;20050;-78